sensor_id;sensor_type;location;lat;lon;timestamp;temperature;humidity
20891;DHT22;10605;52.968;8.844;2023-10-19T00:00:39;8.10;99.90
20891;DHT22;10605;52.968;8.844;2023-10-19T00:03:06;8.00;99.90
20891;DHT22;10605;52.968;8.844;2023-10-19T00:05:32;7.90;99.90
20891;DHT22;10605;52.968;8.844;2023-10-19T00:08:03;7.80;99.90
20891;DHT22;10605;52.968;8.844;2023-10-19T00:10:52;7.80;99.90
20891;DHT22;10605;52.968;8.844;2023-10-19T00:13:28;7.80;99.90
20891;DHT22;10605;52.968;8.844;2023-10-19T00:15:56;7.70;99.90
20891;DHT22;10605;52.968;8.844;2023-10-19T00:18:23;7.70;99.90
20891;DHT22;10605;52.968;8.844;2023-10-19T00:20:55;7.70;99.90
20891;DHT22;10605;52.968;8.844;2023-10-19T00:23:41;7.70;99.90
20891;DHT22;10605;52.968;8.844;2023-10-19T00:26:07;7.70;99.90
20891;DHT22;10605;52.968;8.844;2023-10-19T00:28:40;7.70;99.90
20891;DHT22;10605;52.968;8.844;2023-10-19T00:31:06;7.60;99.90
20891;DHT22;10605;52.968;8.844;2023-10-19T00:33:36;7.60;99.90
20891;DHT22;10605;52.968;8.844;2023-10-19T00:36:09;7.60;99.90
20891;DHT22;10605;52.968;8.844;2023-10-19T00:38:39;7.60;99.90
20891;DHT22;10605;52.968;8.844;2023-10-19T00:41:09;7.60;99.90
20891;DHT22;10605;52.968;8.844;2023-10-19T00:43:39;7.60;99.90
20891;DHT22;10605;52.968;8.844;2023-10-19T00:46:12;7.60;99.90
20891;DHT22;10605;52.968;8.844;2023-10-19T00:48:47;7.60;99.90
20891;DHT22;10605;52.968;8.844;2023-10-19T00:51:16;7.50;99.90
20891;DHT22;10605;52.968;8.844;2023-10-19T00:56:37;7.50;99.90
20891;DHT22;10605;52.968;8.844;2023-10-19T00:59:06;7.60;99.90
20891;DHT22;10605;52.968;8.844;2023-10-19T01:01:45;7.50;99.90
20891;DHT22;10605;52.968;8.844;2023-10-19T01:04:14;7.50;99.90
20891;DHT22;10605;52.968;8.844;2023-10-19T01:06:41;7.50;99.90
20891;DHT22;10605;52.968;8.844;2023-10-19T01:09:23;7.40;99.90
20891;DHT22;10605;52.968;8.844;2023-10-19T01:11:52;7.40;99.90
20891;DHT22;10605;52.968;8.844;2023-10-19T01:14:22;7.40;99.90
20891;DHT22;10605;52.968;8.844;2023-10-19T01:16:48;7.40;99.90
20891;DHT22;10605;52.968;8.844;2023-10-19T01:19:15;7.40;99.90
20891;DHT22;10605;52.968;8.844;2023-10-19T01:21:45;7.40;99.90
20891;DHT22;10605;52.968;8.844;2023-10-19T01:24:20;7.40;99.90
20891;DHT22;10605;52.968;8.844;2023-10-19T01:27:06;7.40;99.90
20891;DHT22;10605;52.968;8.844;2023-10-19T01:29:35;7.30;99.90
20891;DHT22;10605;52.968;8.844;2023-10-19T01:32:03;7.30;99.90
20891;DHT22;10605;52.968;8.844;2023-10-19T01:34:32;7.30;99.90
20891;DHT22;10605;52.968;8.844;2023-10-19T01:37:02;7.30;99.90
20891;DHT22;10605;52.968;8.844;2023-10-19T01:39:32;7.30;99.90
20891;DHT22;10605;52.968;8.844;2023-10-19T01:41:58;7.30;99.90
20891;DHT22;10605;52.968;8.844;2023-10-19T01:44:24;7.30;99.90
20891;DHT22;10605;52.968;8.844;2023-10-19T01:46:50;7.30;99.90
20891;DHT22;10605;52.968;8.844;2023-10-19T01:49:16;7.20;99.90
20891;DHT22;10605;52.968;8.844;2023-10-19T01:51:52;7.20;99.90
20891;DHT22;10605;52.968;8.844;2023-10-19T01:54:20;7.20;99.90
20891;DHT22;10605;52.968;8.844;2023-10-19T01:56:53;7.30;99.90
20891;DHT22;10605;52.968;8.844;2023-10-19T01:59:27;7.20;99.90
20891;DHT22;10605;52.968;8.844;2023-10-19T02:01:54;7.20;99.90
20891;DHT22;10605;52.968;8.844;2023-10-19T02:04:20;7.30;99.90
20891;DHT22;10605;52.968;8.844;2023-10-19T02:06:47;7.20;99.90
20891;DHT22;10605;52.968;8.844;2023-10-19T02:09:14;7.20;99.90
20891;DHT22;10605;52.968;8.844;2023-10-19T02:11:43;7.20;99.90
20891;DHT22;10605;52.968;8.844;2023-10-19T02:14:13;7.20;99.90
20891;DHT22;10605;52.968;8.844;2023-10-19T02:16:46;7.20;99.90
20891;DHT22;10605;52.968;8.844;2023-10-19T02:19:32;7.30;99.90
20891;DHT22;10605;52.968;8.844;2023-10-19T02:22:02;7.30;99.90
20891;DHT22;10605;52.968;8.844;2023-10-19T02:24:37;7.30;99.90
20891;DHT22;10605;52.968;8.844;2023-10-19T02:27:04;7.20;99.90
20891;DHT22;10605;52.968;8.844;2023-10-19T02:29:30;7.20;99.90
20891;DHT22;10605;52.968;8.844;2023-10-19T02:31:56;7.20;99.90
20891;DHT22;10605;52.968;8.844;2023-10-19T02:34:23;7.20;99.90
20891;DHT22;10605;52.968;8.844;2023-10-19T02:36:48;7.30;99.90
20891;DHT22;10605;52.968;8.844;2023-10-19T02:39:15;7.30;99.90
20891;DHT22;10605;52.968;8.844;2023-10-19T02:41:45;7.20;99.90
20891;DHT22;10605;52.968;8.844;2023-10-19T02:44:20;7.30;99.90
20891;DHT22;10605;52.968;8.844;2023-10-19T02:46:52;7.20;99.90
20891;DHT22;10605;52.968;8.844;2023-10-19T02:49:23;7.20;99.90
20891;DHT22;10605;52.968;8.844;2023-10-19T02:51:52;7.20;99.90
20891;DHT22;10605;52.968;8.844;2023-10-19T02:54:20;7.20;99.90
20891;DHT22;10605;52.968;8.844;2023-10-19T02:56:51;7.20;99.90
20891;DHT22;10605;52.968;8.844;2023-10-19T02:59:19;7.20;99.90
20891;DHT22;10605;52.968;8.844;2023-10-19T03:01:52;7.20;99.90
20891;DHT22;10605;52.968;8.844;2023-10-19T03:04:19;7.20;99.90
20891;DHT22;10605;52.968;8.844;2023-10-19T03:06:45;7.20;99.90
20891;DHT22;10605;52.968;8.844;2023-10-19T03:09:11;7.20;99.90
20891;DHT22;10605;52.968;8.844;2023-10-19T03:11:54;7.20;99.90
20891;DHT22;10605;52.968;8.844;2023-10-19T03:14:25;7.20;99.90
20891;DHT22;10605;52.968;8.844;2023-10-19T03:16:51;7.20;99.90
20891;DHT22;10605;52.968;8.844;2023-10-19T03:19:17;7.20;99.90
20891;DHT22;10605;52.968;8.844;2023-10-19T03:21:42;7.20;99.90
20891;DHT22;10605;52.968;8.844;2023-10-19T03:24:10;7.20;99.90
20891;DHT22;10605;52.968;8.844;2023-10-19T03:26:51;7.20;99.90
20891;DHT22;10605;52.968;8.844;2023-10-19T03:29:19;7.20;99.90
20891;DHT22;10605;52.968;8.844;2023-10-19T03:31:56;7.10;99.90
20891;DHT22;10605;52.968;8.844;2023-10-19T03:34:21;7.20;99.90
20891;DHT22;10605;52.968;8.844;2023-10-19T03:36:49;7.20;99.90
20891;DHT22;10605;52.968;8.844;2023-10-19T03:39:16;7.20;99.90
20891;DHT22;10605;52.968;8.844;2023-10-19T03:41:43;7.20;99.90
20891;DHT22;10605;52.968;8.844;2023-10-19T03:44:13;7.20;99.90
20891;DHT22;10605;52.968;8.844;2023-10-19T03:46:50;7.10;99.90
20891;DHT22;10605;52.968;8.844;2023-10-19T03:49:22;7.10;99.90
20891;DHT22;10605;52.968;8.844;2023-10-19T03:51:48;7.10;99.90
20891;DHT22;10605;52.968;8.844;2023-10-19T03:54:32;7.10;99.90
20891;DHT22;10605;52.968;8.844;2023-10-19T03:56:58;7.20;99.90
20891;DHT22;10605;52.968;8.844;2023-10-19T03:59:31;7.20;99.90
20891;DHT22;10605;52.968;8.844;2023-10-19T04:01:59;7.20;99.90
20891;DHT22;10605;52.968;8.844;2023-10-19T04:04:26;7.20;99.90
20891;DHT22;10605;52.968;8.844;2023-10-19T04:06:55;7.20;99.90
20891;DHT22;10605;52.968;8.844;2023-10-19T04:09:24;7.20;99.90
20891;DHT22;10605;52.968;8.844;2023-10-19T04:11:55;7.20;99.90
20891;DHT22;10605;52.968;8.844;2023-10-19T04:14:21;7.20;99.90
20891;DHT22;10605;52.968;8.844;2023-10-19T04:16:47;7.20;99.90
20891;DHT22;10605;52.968;8.844;2023-10-19T04:19:14;7.20;99.90
20891;DHT22;10605;52.968;8.844;2023-10-19T04:21:41;7.20;99.90
20891;DHT22;10605;52.968;8.844;2023-10-19T04:24:12;7.20;99.90
20891;DHT22;10605;52.968;8.844;2023-10-19T04:26:39;7.10;99.90
20891;DHT22;10605;52.968;8.844;2023-10-19T04:29:06;7.20;99.90
20891;DHT22;10605;52.968;8.844;2023-10-19T04:31:43;7.20;99.90
20891;DHT22;10605;52.968;8.844;2023-10-19T04:34:24;7.10;99.90
20891;DHT22;10605;52.968;8.844;2023-10-19T04:36:53;7.20;99.90
20891;DHT22;10605;52.968;8.844;2023-10-19T04:39:19;7.10;99.90
20891;DHT22;10605;52.968;8.844;2023-10-19T04:41:47;7.20;99.90
20891;DHT22;10605;52.968;8.844;2023-10-19T04:44:16;7.10;99.90
20891;DHT22;10605;52.968;8.844;2023-10-19T04:46:42;7.10;99.90
20891;DHT22;10605;52.968;8.844;2023-10-19T04:49:07;7.10;99.90
20891;DHT22;10605;52.968;8.844;2023-10-19T04:51:34;7.20;99.90
20891;DHT22;10605;52.968;8.844;2023-10-19T04:54:02;7.10;99.90
20891;DHT22;10605;52.968;8.844;2023-10-19T04:56:28;7.20;99.90
20891;DHT22;10605;52.968;8.844;2023-10-19T04:58:53;7.10;99.90
20891;DHT22;10605;52.968;8.844;2023-10-19T05:01:19;7.10;99.90
20891;DHT22;10605;52.968;8.844;2023-10-19T05:03:44;7.20;99.90
20891;DHT22;10605;52.968;8.844;2023-10-19T05:06:10;7.20;99.90
20891;DHT22;10605;52.968;8.844;2023-10-19T05:08:36;7.20;99.90
20891;DHT22;10605;52.968;8.844;2023-10-19T05:11:02;7.20;99.90
20891;DHT22;10605;52.968;8.844;2023-10-19T05:13:30;7.10;99.90
20891;DHT22;10605;52.968;8.844;2023-10-19T05:15:56;7.10;99.90
20891;DHT22;10605;52.968;8.844;2023-10-19T05:18:24;7.10;99.90
20891;DHT22;10605;52.968;8.844;2023-10-19T05:20:54;7.10;99.90
20891;DHT22;10605;52.968;8.844;2023-10-19T05:23:23;7.10;99.90
20891;DHT22;10605;52.968;8.844;2023-10-19T05:25:51;7.10;99.90
20891;DHT22;10605;52.968;8.844;2023-10-19T05:28:19;7.10;99.90
20891;DHT22;10605;52.968;8.844;2023-10-19T05:30:44;7.10;99.90
20891;DHT22;10605;52.968;8.844;2023-10-19T05:33:10;7.10;99.90
20891;DHT22;10605;52.968;8.844;2023-10-19T05:35:36;7.10;99.90
20891;DHT22;10605;52.968;8.844;2023-10-19T05:38:07;7.10;99.90
20891;DHT22;10605;52.968;8.844;2023-10-19T05:40:32;7.10;99.90
20891;DHT22;10605;52.968;8.844;2023-10-19T05:42:59;7.10;99.90
20891;DHT22;10605;52.968;8.844;2023-10-19T05:45:27;7.10;99.90
20891;DHT22;10605;52.968;8.844;2023-10-19T05:47:56;7.10;99.90
20891;DHT22;10605;52.968;8.844;2023-10-19T05:50:25;7.10;99.90
20891;DHT22;10605;52.968;8.844;2023-10-19T05:52:51;7.10;99.90
20891;DHT22;10605;52.968;8.844;2023-10-19T05:55:17;7.20;99.90
20891;DHT22;10605;52.968;8.844;2023-10-19T05:57:43;7.10;99.90
20891;DHT22;10605;52.968;8.844;2023-10-19T06:00:11;7.10;99.90
20891;DHT22;10605;52.968;8.844;2023-10-19T06:02:45;7.10;99.90
20891;DHT22;10605;52.968;8.844;2023-10-19T06:05:13;7.10;99.90
20891;DHT22;10605;52.968;8.844;2023-10-19T06:07:41;7.10;99.90
20891;DHT22;10605;52.968;8.844;2023-10-19T06:10:07;7.10;99.90
20891;DHT22;10605;52.968;8.844;2023-10-19T06:12:33;7.10;99.90
20891;DHT22;10605;52.968;8.844;2023-10-19T06:15:00;7.20;99.90
20891;DHT22;10605;52.968;8.844;2023-10-19T06:17:26;7.10;99.90
20891;DHT22;10605;52.968;8.844;2023-10-19T06:19:54;7.10;99.90
20891;DHT22;10605;52.968;8.844;2023-10-19T06:22:20;7.20;99.90
20891;DHT22;10605;52.968;8.844;2023-10-19T06:24:45;7.20;99.90
20891;DHT22;10605;52.968;8.844;2023-10-19T06:27:11;7.20;99.90
20891;DHT22;10605;52.968;8.844;2023-10-19T06:29:37;7.20;99.90
20891;DHT22;10605;52.968;8.844;2023-10-19T06:32:02;7.20;99.90
20891;DHT22;10605;52.968;8.844;2023-10-19T06:34:28;7.20;99.90
20891;DHT22;10605;52.968;8.844;2023-10-19T06:36:54;7.20;99.90
20891;DHT22;10605;52.968;8.844;2023-10-19T06:39:20;7.20;99.90
20891;DHT22;10605;52.968;8.844;2023-10-19T06:41:47;7.20;99.90
20891;DHT22;10605;52.968;8.844;2023-10-19T06:44:13;7.20;99.90
20891;DHT22;10605;52.968;8.844;2023-10-19T06:46:40;7.20;99.90
20891;DHT22;10605;52.968;8.844;2023-10-19T06:49:06;7.20;99.90
20891;DHT22;10605;52.968;8.844;2023-10-19T06:51:33;7.20;99.90
20891;DHT22;10605;52.968;8.844;2023-10-19T06:53:59;7.20;99.90
20891;DHT22;10605;52.968;8.844;2023-10-19T06:56:25;7.30;99.90
20891;DHT22;10605;52.968;8.844;2023-10-19T06:58:50;7.30;99.90
20891;DHT22;10605;52.968;8.844;2023-10-19T07:01:16;7.30;99.90
20891;DHT22;10605;52.968;8.844;2023-10-19T07:03:43;7.30;99.90
20891;DHT22;10605;52.968;8.844;2023-10-19T07:06:09;7.20;99.90
20891;DHT22;10605;52.968;8.844;2023-10-19T07:08:39;7.30;99.90
20891;DHT22;10605;52.968;8.844;2023-10-19T07:11:06;7.30;99.90
20891;DHT22;10605;52.968;8.844;2023-10-19T07:13:33;7.30;99.90
20891;DHT22;10605;52.968;8.844;2023-10-19T07:15:59;7.30;99.90
20891;DHT22;10605;52.968;8.844;2023-10-19T07:18:25;7.30;99.90
20891;DHT22;10605;52.968;8.844;2023-10-19T07:20:52;7.30;99.90
20891;DHT22;10605;52.968;8.844;2023-10-19T07:23:38;7.30;99.90
20891;DHT22;10605;52.968;8.844;2023-10-19T07:26:04;7.30;99.90
20891;DHT22;10605;52.968;8.844;2023-10-19T07:28:31;7.40;99.90
20891;DHT22;10605;52.968;8.844;2023-10-19T07:30:57;7.30;99.90
20891;DHT22;10605;52.968;8.844;2023-10-19T07:33:25;7.50;99.90
20891;DHT22;10605;52.968;8.844;2023-10-19T07:35:52;7.40;99.90
20891;DHT22;10605;52.968;8.844;2023-10-19T07:38:24;7.40;99.90
20891;DHT22;10605;52.968;8.844;2023-10-19T07:40:50;7.40;99.90
20891;DHT22;10605;52.968;8.844;2023-10-19T07:43:19;7.50;99.90
20891;DHT22;10605;52.968;8.844;2023-10-19T07:45:46;7.50;99.90
20891;DHT22;10605;52.968;8.844;2023-10-19T07:48:13;7.50;99.90
20891;DHT22;10605;52.968;8.844;2023-10-19T07:50:40;7.60;99.90
20891;DHT22;10605;52.968;8.844;2023-10-19T07:53:06;7.60;99.90
20891;DHT22;10605;52.968;8.844;2023-10-19T07:55:32;7.70;99.90
20891;DHT22;10605;52.968;8.844;2023-10-19T07:57:58;7.70;99.90
20891;DHT22;10605;52.968;8.844;2023-10-19T08:00:28;7.70;99.90
20891;DHT22;10605;52.968;8.844;2023-10-19T08:02:59;7.70;99.90
20891;DHT22;10605;52.968;8.844;2023-10-19T08:05:25;7.70;99.90
20891;DHT22;10605;52.968;8.844;2023-10-19T08:07:51;7.70;99.90
20891;DHT22;10605;52.968;8.844;2023-10-19T08:10:18;7.70;99.90
20891;DHT22;10605;52.968;8.844;2023-10-19T08:12:46;7.80;99.90
20891;DHT22;10605;52.968;8.844;2023-10-19T08:15:16;7.80;99.90
20891;DHT22;10605;52.968;8.844;2023-10-19T08:17:47;7.80;99.90
20891;DHT22;10605;52.968;8.844;2023-10-19T08:20:14;7.80;99.90
20891;DHT22;10605;52.968;8.844;2023-10-19T08:22:50;7.90;99.90
20891;DHT22;10605;52.968;8.844;2023-10-19T08:25:16;7.90;99.90
20891;DHT22;10605;52.968;8.844;2023-10-19T08:27:46;7.90;99.90
20891;DHT22;10605;52.968;8.844;2023-10-19T08:30:16;7.90;99.90
20891;DHT22;10605;52.968;8.844;2023-10-19T08:32:43;8.00;99.90
20891;DHT22;10605;52.968;8.844;2023-10-19T08:38:25;7.90;99.90
20891;DHT22;10605;52.968;8.844;2023-10-19T08:40:52;7.90;99.90
20891;DHT22;10605;52.968;8.844;2023-10-19T08:43:19;7.90;99.90
20891;DHT22;10605;52.968;8.844;2023-10-19T08:45:47;8.00;99.90
20891;DHT22;10605;52.968;8.844;2023-10-19T08:48:13;8.00;99.90
20891;DHT22;10605;52.968;8.844;2023-10-19T08:50:40;8.10;99.90
20891;DHT22;10605;52.968;8.844;2023-10-19T08:53:08;8.10;99.90
20891;DHT22;10605;52.968;8.844;2023-10-19T08:55:34;8.10;99.90
20891;DHT22;10605;52.968;8.844;2023-10-19T08:58:01;8.30;99.90
20891;DHT22;10605;52.968;8.844;2023-10-19T09:00:28;8.40;99.90
20891;DHT22;10605;52.968;8.844;2023-10-19T09:02:59;8.40;99.90
20891;DHT22;10605;52.968;8.844;2023-10-19T09:05:30;8.30;99.90
20891;DHT22;10605;52.968;8.844;2023-10-19T09:07:56;8.30;99.90
20891;DHT22;10605;52.968;8.844;2023-10-19T09:10:27;8.30;99.90
20891;DHT22;10605;52.968;8.844;2023-10-19T09:13:04;8.50;99.90
20891;DHT22;10605;52.968;8.844;2023-10-19T09:15:30;8.50;99.90
20891;DHT22;10605;52.968;8.844;2023-10-19T09:18:00;8.50;99.90
20891;DHT22;10605;52.968;8.844;2023-10-19T09:20:36;8.70;99.90
20891;DHT22;10605;52.968;8.844;2023-10-19T09:23:03;8.60;99.90
20891;DHT22;10605;52.968;8.844;2023-10-19T09:25:29;8.60;99.90
20891;DHT22;10605;52.968;8.844;2023-10-19T09:27:54;8.60;99.90
20891;DHT22;10605;52.968;8.844;2023-10-19T09:30:21;8.60;99.90
20891;DHT22;10605;52.968;8.844;2023-10-19T09:32:50;8.60;99.90
20891;DHT22;10605;52.968;8.844;2023-10-19T09:35:19;8.60;99.90
20891;DHT22;10605;52.968;8.844;2023-10-19T09:37:45;8.80;99.90
20891;DHT22;10605;52.968;8.844;2023-10-19T09:40:11;8.80;99.90
20891;DHT22;10605;52.968;8.844;2023-10-19T09:42:40;8.70;99.90
20891;DHT22;10605;52.968;8.844;2023-10-19T09:45:12;8.80;99.90
20891;DHT22;10605;52.968;8.844;2023-10-19T09:47:41;8.70;99.90
20891;DHT22;10605;52.968;8.844;2023-10-19T09:50:12;8.80;99.90
20891;DHT22;10605;52.968;8.844;2023-10-19T09:52:39;8.70;99.90
20891;DHT22;10605;52.968;8.844;2023-10-19T09:55:14;8.50;99.90
20891;DHT22;10605;52.968;8.844;2023-10-19T09:57:53;8.60;99.90
20891;DHT22;10605;52.968;8.844;2023-10-19T10:00:19;8.60;99.90
20891;DHT22;10605;52.968;8.844;2023-10-19T10:02:56;8.50;99.90
20891;DHT22;10605;52.968;8.844;2023-10-19T10:15:54;8.50;99.90
20891;DHT22;10605;52.968;8.844;2023-10-19T10:18:20;8.50;99.90
20891;DHT22;10605;52.968;8.844;2023-10-19T10:20:46;8.50;99.90
20891;DHT22;10605;52.968;8.844;2023-10-19T10:23:20;8.60;99.90
20891;DHT22;10605;52.968;8.844;2023-10-19T10:25:50;8.60;99.90
20891;DHT22;10605;52.968;8.844;2023-10-19T10:28:19;8.60;99.90
20891;DHT22;10605;52.968;8.844;2023-10-19T10:31:24;8.70;99.90
20891;DHT22;10605;52.968;8.844;2023-10-19T10:33:54;8.70;99.90
20891;DHT22;10605;52.968;8.844;2023-10-19T10:37:04;8.80;99.90
20891;DHT22;10605;52.968;8.844;2023-10-19T10:40:53;8.90;99.90
20891;DHT22;10605;52.968;8.844;2023-10-19T10:43:54;9.00;99.90
20891;DHT22;10605;52.968;8.844;2023-10-19T10:46:52;8.90;99.90
20891;DHT22;10605;52.968;8.844;2023-10-19T10:50:33;8.80;99.90
20891;DHT22;10605;52.968;8.844;2023-10-19T10:53:53;8.80;99.90
20891;DHT22;10605;52.968;8.844;2023-10-19T10:56:43;8.90;99.90
20891;DHT22;10605;52.968;8.844;2023-10-19T11:00:19;9.10;99.90
20891;DHT22;10605;52.968;8.844;2023-10-19T11:03:07;9.10;99.90
20891;DHT22;10605;52.968;8.844;2023-10-19T11:06:03;9.10;99.90
20891;DHT22;10605;52.968;8.844;2023-10-19T11:08:45;9.10;99.90
20891;DHT22;10605;52.968;8.844;2023-10-19T11:11:10;9.00;99.90
20891;DHT22;10605;52.968;8.844;2023-10-19T11:13:39;9.00;99.90
20891;DHT22;10605;52.968;8.844;2023-10-19T11:16:06;9.00;99.90
20891;DHT22;10605;52.968;8.844;2023-10-19T11:18:40;9.10;99.90
20891;DHT22;10605;52.968;8.844;2023-10-19T11:21:12;9.10;99.90
20891;DHT22;10605;52.968;8.844;2023-10-19T11:23:44;9.10;99.90
20891;DHT22;10605;52.968;8.844;2023-10-19T11:26:11;8.90;99.90
20891;DHT22;10605;52.968;8.844;2023-10-19T11:28:37;8.90;99.90
20891;DHT22;10605;52.968;8.844;2023-10-19T11:31:21;8.80;99.90
20891;DHT22;10605;52.968;8.844;2023-10-19T11:33:51;8.80;99.90
20891;DHT22;10605;52.968;8.844;2023-10-19T11:36:18;8.80;99.90
20891;DHT22;10605;52.968;8.844;2023-10-19T11:38:45;8.80;99.90
20891;DHT22;10605;52.968;8.844;2023-10-19T11:41:15;8.80;99.90
20891;DHT22;10605;52.968;8.844;2023-10-19T11:43:43;8.70;99.90
20891;DHT22;10605;52.968;8.844;2023-10-19T11:46:10;8.70;99.90
20891;DHT22;10605;52.968;8.844;2023-10-19T11:48:37;8.70;99.90
20891;DHT22;10605;52.968;8.844;2023-10-19T11:51:03;8.70;99.90
20891;DHT22;10605;52.968;8.844;2023-10-19T11:53:33;8.60;99.90
20891;DHT22;10605;52.968;8.844;2023-10-19T11:56:10;8.70;99.90
20891;DHT22;10605;52.968;8.844;2023-10-19T11:58:38;8.70;99.90
20891;DHT22;10605;52.968;8.844;2023-10-19T12:01:06;8.70;99.90
20891;DHT22;10605;52.968;8.844;2023-10-19T12:03:34;8.80;99.90
20891;DHT22;10605;52.968;8.844;2023-10-19T12:06:05;8.80;99.90
20891;DHT22;10605;52.968;8.844;2023-10-19T12:08:34;8.80;99.90
20891;DHT22;10605;52.968;8.844;2023-10-19T12:11:01;8.90;99.90
20891;DHT22;10605;52.968;8.844;2023-10-19T12:13:29;8.80;99.90
20891;DHT22;10605;52.968;8.844;2023-10-19T12:15:55;8.90;99.90
20891;DHT22;10605;52.968;8.844;2023-10-19T12:18:21;8.80;99.90
20891;DHT22;10605;52.968;8.844;2023-10-19T12:20:47;8.90;99.90
20891;DHT22;10605;52.968;8.844;2023-10-19T12:23:14;8.90;99.90
20891;DHT22;10605;52.968;8.844;2023-10-19T12:25:40;8.90;99.90
20891;DHT22;10605;52.968;8.844;2023-10-19T12:28:08;8.80;99.90
20891;DHT22;10605;52.968;8.844;2023-10-19T12:30:33;8.90;99.90
20891;DHT22;10605;52.968;8.844;2023-10-19T12:33:05;8.80;99.90
20891;DHT22;10605;52.968;8.844;2023-10-19T12:35:45;8.80;99.90
20891;DHT22;10605;52.968;8.844;2023-10-19T12:38:17;8.80;99.90
20891;DHT22;10605;52.968;8.844;2023-10-19T12:40:47;8.80;99.90
20891;DHT22;10605;52.968;8.844;2023-10-19T12:43:14;8.80;99.90
20891;DHT22;10605;52.968;8.844;2023-10-19T12:45:40;8.80;99.90
20891;DHT22;10605;52.968;8.844;2023-10-19T12:48:07;8.90;99.90
20891;DHT22;10605;52.968;8.844;2023-10-19T12:50:37;8.80;99.90
20891;DHT22;10605;52.968;8.844;2023-10-19T12:53:03;8.80;99.90
20891;DHT22;10605;52.968;8.844;2023-10-19T12:55:29;8.80;99.90
20891;DHT22;10605;52.968;8.844;2023-10-19T12:57:59;8.70;99.90
20891;DHT22;10605;52.968;8.844;2023-10-19T13:00:32;8.70;99.90
20891;DHT22;10605;52.968;8.844;2023-10-19T13:03:07;8.70;99.90
20891;DHT22;10605;52.968;8.844;2023-10-19T13:05:34;8.70;99.90
20891;DHT22;10605;52.968;8.844;2023-10-19T13:08:01;8.70;99.90
20891;DHT22;10605;52.968;8.844;2023-10-19T13:10:30;8.70;99.90
20891;DHT22;10605;52.968;8.844;2023-10-19T13:13:04;8.60;99.90
20891;DHT22;10605;52.968;8.844;2023-10-19T13:15:34;8.50;99.90
20891;DHT22;10605;52.968;8.844;2023-10-19T13:18:05;8.50;99.90
20891;DHT22;10605;52.968;8.844;2023-10-19T13:20:35;8.50;99.90
20891;DHT22;10605;52.968;8.844;2023-10-19T13:23:06;8.50;99.90
20891;DHT22;10605;52.968;8.844;2023-10-19T13:25:33;8.50;99.90
20891;DHT22;10605;52.968;8.844;2023-10-19T13:28:19;8.50;99.90
20891;DHT22;10605;52.968;8.844;2023-10-19T13:30:50;8.40;99.90
20891;DHT22;10605;52.968;8.844;2023-10-19T13:33:16;8.40;99.90
20891;DHT22;10605;52.968;8.844;2023-10-19T13:35:44;8.40;99.90
20891;DHT22;10605;52.968;8.844;2023-10-19T13:38:11;8.40;99.90
20891;DHT22;10605;52.968;8.844;2023-10-19T13:40:39;8.40;99.90
20891;DHT22;10605;52.968;8.844;2023-10-19T13:43:06;8.40;99.90
20891;DHT22;10605;52.968;8.844;2023-10-19T13:45:36;8.40;99.90
20891;DHT22;10605;52.968;8.844;2023-10-19T13:48:07;8.40;99.90
20891;DHT22;10605;52.968;8.844;2023-10-19T13:50:35;8.40;99.90
20891;DHT22;10605;52.968;8.844;2023-10-19T13:53:01;8.30;99.90
20891;DHT22;10605;52.968;8.844;2023-10-19T13:55:30;8.30;99.90
20891;DHT22;10605;52.968;8.844;2023-10-19T13:57:56;8.30;99.90
20891;DHT22;10605;52.968;8.844;2023-10-19T14:00:23;8.30;99.90
20891;DHT22;10605;52.968;8.844;2023-10-19T14:02:51;8.30;99.90
20891;DHT22;10605;52.968;8.844;2023-10-19T14:05:17;8.20;99.90
20891;DHT22;10605;52.968;8.844;2023-10-19T14:07:44;8.20;99.90
20891;DHT22;10605;52.968;8.844;2023-10-19T14:10:12;8.30;99.90
20891;DHT22;10605;52.968;8.844;2023-10-19T14:12:38;8.20;99.90
20891;DHT22;10605;52.968;8.844;2023-10-19T14:15:13;8.20;99.90
20891;DHT22;10605;52.968;8.844;2023-10-19T14:17:40;8.20;99.90
20891;DHT22;10605;52.968;8.844;2023-10-19T14:20:07;8.20;99.90
20891;DHT22;10605;52.968;8.844;2023-10-19T14:22:44;8.20;99.90
20891;DHT22;10605;52.968;8.844;2023-10-19T14:25:12;8.10;99.90
20891;DHT22;10605;52.968;8.844;2023-10-19T14:27:44;8.10;99.90
20891;DHT22;10605;52.968;8.844;2023-10-19T14:30:19;8.10;99.90
20891;DHT22;10605;52.968;8.844;2023-10-19T14:32:47;8.10;99.90
20891;DHT22;10605;52.968;8.844;2023-10-19T14:35:15;8.10;99.90
20891;DHT22;10605;52.968;8.844;2023-10-19T14:37:42;8.10;99.90
20891;DHT22;10605;52.968;8.844;2023-10-19T14:40:10;8.10;99.90
20891;DHT22;10605;52.968;8.844;2023-10-19T14:42:39;8.10;99.90
20891;DHT22;10605;52.968;8.844;2023-10-19T14:45:09;8.10;99.90
20891;DHT22;10605;52.968;8.844;2023-10-19T14:47:39;8.10;99.90
20891;DHT22;10605;52.968;8.844;2023-10-19T14:50:12;8.00;99.90
20891;DHT22;10605;52.968;8.844;2023-10-19T14:52:40;8.00;99.90
20891;DHT22;10605;52.968;8.844;2023-10-19T14:55:06;8.00;99.90
20891;DHT22;10605;52.968;8.844;2023-10-19T14:57:33;8.00;99.90
20891;DHT22;10605;52.968;8.844;2023-10-19T14:59:59;8.00;99.90
20891;DHT22;10605;52.968;8.844;2023-10-19T15:02:35;8.00;99.90
20891;DHT22;10605;52.968;8.844;2023-10-19T15:05:01;8.00;99.90
20891;DHT22;10605;52.968;8.844;2023-10-19T15:07:29;8.00;99.90
20891;DHT22;10605;52.968;8.844;2023-10-19T15:09:55;7.90;99.90
20891;DHT22;10605;52.968;8.844;2023-10-19T15:12:21;7.90;99.90
20891;DHT22;10605;52.968;8.844;2023-10-19T15:14:46;7.90;99.90
20891;DHT22;10605;52.968;8.844;2023-10-19T15:17:12;7.90;99.90
20891;DHT22;10605;52.968;8.844;2023-10-19T15:19:38;7.90;99.90
20891;DHT22;10605;52.968;8.844;2023-10-19T15:22:03;7.90;99.90
20891;DHT22;10605;52.968;8.844;2023-10-19T15:24:29;7.80;99.90
20891;DHT22;10605;52.968;8.844;2023-10-19T15:26:55;7.90;99.90
20891;DHT22;10605;52.968;8.844;2023-10-19T15:29:21;7.90;99.90
20891;DHT22;10605;52.968;8.844;2023-10-19T15:31:47;7.90;99.90
20891;DHT22;10605;52.968;8.844;2023-10-19T15:34:13;7.90;99.90
20891;DHT22;10605;52.968;8.844;2023-10-19T15:36:40;7.90;99.90
20891;DHT22;10605;52.968;8.844;2023-10-19T15:39:07;7.80;99.90
20891;DHT22;10605;52.968;8.844;2023-10-19T15:41:36;7.90;99.90
20891;DHT22;10605;52.968;8.844;2023-10-19T15:44:02;7.90;99.90
20891;DHT22;10605;52.968;8.844;2023-10-19T15:46:29;7.90;99.90
20891;DHT22;10605;52.968;8.844;2023-10-19T15:48:57;7.80;99.90
20891;DHT22;10605;52.968;8.844;2023-10-19T15:51:22;7.80;99.90
20891;DHT22;10605;52.968;8.844;2023-10-19T15:53:48;7.80;99.90
20891;DHT22;10605;52.968;8.844;2023-10-19T15:56:14;7.80;99.90
20891;DHT22;10605;52.968;8.844;2023-10-19T15:58:43;7.80;99.90
20891;DHT22;10605;52.968;8.844;2023-10-19T16:01:09;7.80;99.90
20891;DHT22;10605;52.968;8.844;2023-10-19T16:03:36;7.80;99.90
20891;DHT22;10605;52.968;8.844;2023-10-19T16:06:03;7.70;99.90
20891;DHT22;10605;52.968;8.844;2023-10-19T16:08:29;7.70;99.90
20891;DHT22;10605;52.968;8.844;2023-10-19T16:10:55;7.70;99.90
20891;DHT22;10605;52.968;8.844;2023-10-19T16:13:21;7.70;99.90
20891;DHT22;10605;52.968;8.844;2023-10-19T16:15:46;7.70;99.90
20891;DHT22;10605;52.968;8.844;2023-10-19T16:18:12;7.70;99.90